Time;durP1;ratioP1;P1;durP2;ratioP2;P2;SDS_P1;SDS_P2;PMS_P1;PMS_P2;Temp;Humidity;BMP_temperature;BMP_pressure;BME280_temperature;BME280_humidity;BME280_pressure;Samples;Min_cycle;Max_cycle;Signal;HPM_P1;HPM_P2
2022/06/21 20:33:30;;;;;;;;;;;;;;;11.96;77.89;99967.70;84748;1328;22671;-72
2022/06/21 20:35:36;;;;;;;;;;;;;;;11.96;78.00;99968.59;84770;1326;25279;-71
2022/06/21 20:37:48;;;;;;;;;;;;;;;11.95;78.23;99972.48;84743;1325;22570;-72
2022/06/21 20:39:57;;;;;;;;;;;;;;;11.95;78.19;99974.79;84758;1326;22703;-72
2022/06/21 20:42:03;;;;;;;;;;;;;;;11.94;78.23;99975.02;84792;1326;22586;-70
2022/06/21 20:44:08;;;;;;;;;;;;;;;11.91;78.52;99978.80;84767;1325;22568;-70
2022/06/21 20:46:43;;;;;;;;;;;;;;;11.90;78.61;99979.38;84763;1326;22542;-71
2022/06/21 20:49:04;;;;;;;;;;;;;;;11.90;78.54;99983.77;84791;1328;25908;-71
2022/06/21 20:51:15;;;;;;;;;;;;;;;11.90;78.77;99987.42;84767;1326;22658;-71
2022/06/21 20:53:31;;;;;;;;;;;;;;;11.88;78.63;99988.73;84770;1324;22619;-72
2022/06/21 20:55:34;;;;;;;;;;;;;;;11.85;78.72;99993.23;84778;1326;22639;-72
2022/06/21 20:57:57;;;;;;;;;;;;;;;11.84;79.00;99996.44;84781;1330;25252;-72
2022/06/21 21:00:00;;;;;;;;;;;;;;;11.83;79.09;100004.54;84849;1329;24365;-71
2022/06/21 21:02:09;;;;;;;;;;;;;;;11.82;79.31;100007.39;84737;1327;22582;-71
2022/06/21 21:04:18;;;;;;;;;;;;;;;11.81;79.11;100002.13;84829;1326;22578;-71
2022/06/21 21:06:33;;;;;;;;;;;;;;;11.81;79.23;99999.89;84837;1328;22676;-71
2022/06/21 21:08:38;;;;;;;;;;;;;;;11.79;79.40;99994.92;84847;1326;22577;-72
2022/06/21 21:10:48;;;;;;;;;;;;;;;11.77;79.18;99994.15;84710;1325;22534;-71
2022/06/21 21:12:57;;;;;;;;;;;;;;;11.73;79.35;99996.80;84865;1326;22719;-71
2022/06/21 21:15:05;;;;;;;;;;;;;;;11.70;79.49;99994.68;84844;1327;22640;-70
2022/06/21 21:17:10;;;;;;;;;;;;;;;11.66;79.64;99993.45;84713;1327;22584;-71
2022/06/21 21:19:16;;;;;;;;;;;;;;;11.64;79.93;99992.13;84795;1329;24240;-72
2022/06/21 21:21:21;;;;;;;;;;;;;;;11.63;79.99;99995.00;84889;1327;22661;-71
2022/06/21 21:23:26;;;;;;;;;;;;;;;11.64;80.38;99999.33;84716;1326;22570;-72
2022/06/21 21:25:31;;;;;;;;;;;;;;;11.65;80.26;100002.42;84803;1326;22708;-72
2022/06/21 21:27:35;;;;;;;;;;;;;;;11.63;80.11;100001.29;84836;1327;22596;-72
2022/06/21 21:29:39;;;;;;;;;;;;;;;11.59;80.23;99999.73;84847;1326;22710;-72
2022/06/21 21:31:51;;;;;;;;;;;;;;;11.56;80.32;99994.61;84803;1326;22573;-72
2022/06/21 21:33:58;;;;;;;;;;;;;;;11.50;80.44;99990.19;84782;1329;25351;-72
2022/06/21 21:36:07;;;;;;;;;;;;;;;11.49;80.45;99985.73;84800;1329;25436;-71
2022/06/21 21:38:16;;;;;;;;;;;;;;;11.45;80.38;99988.70;84826;1325;23916;-72
2022/06/21 21:40:28;;;;;;;;;;;;;;;11.44;80.72;99993.31;84781;1326;22578;-71
2022/06/21 21:42:36;;;;;;;;;;;;;;;11.41;80.74;99998.16;84848;1326;24290;-72
2022/06/21 21:44:39;;;;;;;;;;;;;;;11.40;81.11;100001.67;84822;1325;22641;-71
2022/06/21 21:46:46;;;;;;;;;;;;;;;11.40;80.98;99998.54;84823;1321;22587;-72
2022/06/21 21:48:52;;;;;;;;;;;;;;;11.40;81.23;99998.92;84877;1327;22597;-72
2022/06/21 21:50:56;;;;;;;;;;;;;;;11.39;81.30;100000.70;84710;1327;22823;-72
2022/06/21 21:52:59;;;;;;;;;;;;;;;11.39;81.41;99996.50;84797;1326;25447;-72
2022/06/21 21:55:04;;;;;;;;;;;;;;;11.40;81.36;99995.41;84785;1326;22589;-73
2022/06/21 21:57:08;;;;;;;;;;;;;;;11.37;81.20;99992.39;84775;1326;22606;-72
2022/06/21 21:59:14;;;;;;;;;;;;;;;11.35;81.45;99992.50;84766;1327;22688;-72
2022/06/21 22:01:19;;;;;;;;;;;;;;;11.31;81.50;99992.32;84806;1330;24444;-72
2022/06/21 22:03:36;;;;;;;;;;;;;;;11.27;81.62;99994.59;84797;1326;22849;-71
2022/06/21 22:05:41;;;;;;;;;;;;;;;11.25;81.54;99990.34;84771;1327;24187;-72
2022/06/21 22:07:47;;;;;;;;;;;;;;;11.23;81.82;99996.36;84782;1326;22548;-72
2022/06/21 22:10:02;;;;;;;;;;;;;;;11.22;81.95;100000.05;84792;1327;22584;-71
2022/06/21 22:12:09;;;;;;;;;;;;;;;11.21;81.97;100000.15;84848;1326;22564;-72
2022/06/21 22:14:18;;;;;;;;;;;;;;;11.19;82.08;100000.59;84854;1327;22548;-72
2022/06/21 22:16:24;;;;;;;;;;;;;;;11.15;81.89;100003.06;84844;1326;22613;-71
2022/06/21 22:18:30;;;;;;;;;;;;;;;11.13;81.98;100005.90;84843;1325;22585;-72
2022/06/21 22:20:35;;;;;;;;;;;;;;;11.12;82.17;100007.69;84848;1325;25427;-72
2022/06/21 22:22:45;;;;;;;;;;;;;;;11.10;82.47;100006.90;84854;1327;25417;-72
2022/06/21 22:24:48;;;;;;;;;;;;;;;11.09;82.49;99999.63;84827;1328;25210;-72
2022/06/21 22:26:52;;;;;;;;;;;;;;;11.09;82.70;99998.41;84847;1327;22641;-72
2022/06/21 22:28:57;;;;;;;;;;;;;;;11.10;82.89;100002.20;84808;1330;22980;-72
2022/06/21 22:31:06;;;;;;;;;;;;;;;11.10;82.88;99997.69;84802;1322;22671;-72
2022/06/21 22:33:11;;;;;;;;;;;;;;;11.09;83.00;100001.91;84871;1327;25409;-72
2022/06/21 22:35:14;;;;;;;;;;;;;;;11.06;82.76;100001.67;84852;1326;22593;-71
2022/06/21 22:37:20;;;;;;;;;;;;;;;11.05;82.80;100002.43;84875;1326;22586;-71
2022/06/21 22:39:25;;;;;;;;;;;;;;;11.05;83.16;100005.73;84864;1327;22655;-72
2022/06/21 22:41:28;;;;;;;;;;;;;;;11.05;83.12;100009.58;84829;1327;22570;-71
2022/06/21 22:43:34;;;;;;;;;;;;;;;11.05;83.20;100013.98;84845;1328;23922;-72
2022/06/21 22:45:38;;;;;;;;;;;;;;;11.07;83.41;100020.70;84851;1327;25425;-72
2022/06/21 22:47:42;;;;;;;;;;;;;;;11.05;83.10;100024.25;84864;1327;22570;-72
2022/06/21 22:49:46;;;;;;;;;;;;;;;11.01;83.17;100020.80;84844;1322;22702;-72
2022/06/21 22:51:50;;;;;;;;;;;;;;;10.98;83.15;100020.04;84823;1326;22536;-72
2022/06/21 22:53:56;;;;;;;;;;;;;;;10.94;83.15;100020.05;84775;1325;22589;-72
2022/06/21 22:55:59;;;;;;;;;;;;;;;10.91;83.27;100019.69;84785;1326;22590;-71
2022/06/21 22:58:08;;;;;;;;;;;;;;;10.89;83.28;100016.63;84794;1326;23968;-72
2022/06/21 23:00:16;;;;;;;;;;;;;;;10.86;83.18;100017.45;84785;1325;22675;-72
2022/06/21 23:02:29;;;;;;;;;;;;;;;10.84;83.58;100016.33;84816;1324;22583;-72
2022/06/21 23:04:34;;;;;;;;;;;;;;;10.82;83.65;100015.14;84773;1326;22664;-72
2022/06/21 23:06:40;;;;;;;;;;;;;;;10.78;83.71;100014.13;84800;1324;22588;-72
2022/06/21 23:08:44;;;;;;;;;;;;;;;10.75;83.82;100016.17;84810;1326;22588;-73
2022/06/21 23:10:52;;;;;;;;;;;;;;;10.74;83.74;100017.10;84810;1325;22874;-72
2022/06/21 23:13:13;;;;;;;;;;;;;;;10.72;83.82;100018.92;84802;1327;22651;-71
2022/06/21 23:15:20;;;;;;;;;;;;;;;10.71;83.93;100024.91;84773;1326;22540;-71
2022/06/21 23:17:23;;;;;;;;;;;;;;;10.69;83.95;100024.83;84758;1327;23805;-72
2022/06/21 23:19:28;;;;;;;;;;;;;;;10.67;84.10;100029.09;84795;1330;25432;-71
2022/06/21 23:21:39;;;;;;;;;;;;;;;10.66;83.91;100035.95;84789;1326;22599;-72
2022/06/21 23:23:42;;;;;;;;;;;;;;;10.63;84.02;100034.01;84778;1325;22620;-72
2022/06/21 23:25:45;;;;;;;;;;;;;;;10.61;84.16;100039.33;84798;1327;22579;-72
2022/06/21 23:27:49;;;;;;;;;;;;;;;10.57;84.08;100035.80;84797;1323;22588;-71
2022/06/21 23:29:53;;;;;;;;;;;;;;;10.55;84.15;100034.88;84793;1326;25441;-72
2022/06/21 23:31:58;;;;;;;;;;;;;;;10.53;84.24;100036.53;84802;1323;22767;-71
2022/06/21 23:34:03;;;;;;;;;;;;;;;10.51;84.22;100041.13;84779;1326;22869;-71
2022/06/21 23:36:10;;;;;;;;;;;;;;;10.47;84.10;100040.41;84779;1326;22780;-72
2022/06/21 23:38:23;;;;;;;;;;;;;;;10.44;84.09;100034.83;84787;1325;23925;-72
2022/06/21 23:40:29;;;;;;;;;;;;;;;10.41;84.14;100040.17;84792;1326;22569;-71
2022/06/21 23:42:32;;;;;;;;;;;;;;;10.38;84.37;100038.36;84794;1327;22570;-72
2022/06/21 23:44:36;;;;;;;;;;;;;;;10.37;84.30;100041.06;84777;1327;25258;-72
2022/06/21 23:46:42;;;;;;;;;;;;;;;10.34;84.52;100041.70;84792;1326;23983;-72
2022/06/21 23:48:45;;;;;;;;;;;;;;;10.32;84.70;100041.89;84773;1326;22600;-71
2022/06/21 23:50:49;;;;;;;;;;;;;;;10.31;84.63;100041.27;84791;1326;22770;-71
2022/06/21 23:52:53;;;;;;;;;;;;;;;10.29;84.60;100038.23;84786;1326;22608;-72
2022/06/21 23:54:57;;;;;;;;;;;;;;;10.26;84.75;100035.73;84781;1330;22573;-71
2022/06/21 23:57:01;;;;;;;;;;;;;;;10.25;84.70;100035.96;84771;1326;22645;-72
2022/06/21 23:59:04;;;;;;;;;;;;;;;10.21;84.87;100029.98;84805;1326;25496;-72
